Time;durP1;ratioP1;P1;durP2;ratioP2;P2;SDS_P1;SDS_P2;PMS_P1;PMS_P2;Temp;Humidity;BMP_temperature;BMP_pressure;BME280_temperature;BME280_humidity;BME280_pressure;Samples;Min_cycle;Max_cycle;Signal;HPM_P1;HPM_P2
2023/11/17 00:02:12;;;;;;;7.15;2.03;;;8.80;75.70;;;;;;4794672;29;20088;-93
2023/11/17 00:04:39;;;;;;;5.13;1.90;;;8.80;75.30;;;;;;4794315;29;20067;-93
2023/11/17 00:07:06;;;;;;;6.25;1.73;;;8.80;74.80;;;;;;4795448;29;20061;-93
2023/11/17 00:09:33;;;;;;;6.17;1.90;;;8.60;75.20;;;;;;4797758;29;20054;-93
2023/11/17 00:12:00;;;;;;;6.60;2.28;;;8.60;75.80;;;;;;4798235;29;20057;-92
2023/11/17 00:14:31;;;;;;;5.95;1.92;;;8.60;76.00;;;;;;4798475;29;20067;-93
2023/11/17 00:16:58;;;;;;;6.35;1.73;;;8.60;75.70;;;;;;4798131;29;20497;-93
2023/11/17 00:19:25;;;;;;;6.93;1.95;;;8.50;76.00;;;;;;4812857;29;20103;-92
2023/11/17 00:21:52;;;;;;;5.67;2.20;;;8.50;76.60;;;;;;4797840;29;20050;-93
2023/11/17 00:24:19;;;;;;;5.07;1.83;;;8.50;77.10;;;;;;4797974;29;20058;-93
2023/11/17 00:26:47;;;;;;;7.60;1.95;;;8.50;77.00;;;;;;4797855;29;20466;-93
2023/11/17 00:29:14;;;;;;;7.13;2.50;;;8.50;77.10;;;;;;4797950;29;20105;-93
2023/11/17 00:31:41;;;;;;;5.78;1.55;;;8.50;77.10;;;;;;4797921;29;20467;-94
2023/11/17 00:34:08;;;;;;;6.57;2.00;;;8.50;77.70;;;;;;4798053;29;20055;-93
2023/11/17 00:36:35;;;;;;;5.50;1.67;;;8.40;77.70;;;;;;4797894;29;20144;-94
2023/11/17 00:39:03;;;;;;;5.32;1.50;;;8.30;77.70;;;;;;4812811;29;20062;-93
2023/11/17 00:41:30;;;;;;;5.07;1.58;;;8.20;78.00;;;;;;4797738;29;20141;-93
2023/11/17 00:43:58;;;;;;;4.50;1.45;;;8.20;78.60;;;;;;4812882;29;20046;-94
2023/11/17 00:46:25;;;;;;;5.70;1.60;;;8.20;79.20;;;;;;4797559;29;20061;-94
2023/11/17 00:48:52;;;;;;;5.05;1.50;;;8.10;79.40;;;;;;4812157;29;20141;-94
2023/11/17 00:51:21;;;;;;;5.82;1.63;;;8.10;79.60;;;;;;4797358;29;20506;-93
2023/11/17 00:53:48;;;;;;;4.70;1.20;;;8.00;79.70;;;;;;4797280;29;20512;-95
2023/11/17 00:56:16;;;;;;;4.32;0.90;;;8.00;79.80;;;;;;4797232;29;20097;-93
2023/11/17 00:58:43;;;;;;;3.77;0.90;;;7.90;80.20;;;;;;4797422;29;20058;-94
2023/11/17 01:01:10;;;;;;;4.93;1.10;;;7.90;80.00;;;;;;4797658;29;20093;-93
2023/11/17 01:03:38;;;;;;;2.53;0.73;;;7.80;80.10;;;;;;4797815;29;20077;-93
2023/11/17 01:06:06;;;;;;;4.38;1.40;;;7.80;80.10;;;;;;4797591;29;20046;-93
2023/11/17 01:08:33;;;;;;;4.15;0.98;;;7.80;80.30;;;;;;4797089;29;20050;-94
2023/11/17 01:11:00;;;;;;;4.37;1.20;;;7.80;80.50;;;;;;4797827;29;20061;-93
2023/11/17 01:13:27;;;;;;;5.88;1.38;;;7.70;80.50;;;;;;4797100;29;20046;-94
2023/11/17 01:15:55;;;;;;;4.00;1.17;;;7.80;80.70;;;;;;4797147;29;20054;-93
2023/11/17 01:18:22;;;;;;;3.90;1.20;;;7.70;80.70;;;;;;4812036;29;20054;-94
2023/11/17 01:20:49;;;;;;;3.67;0.95;;;7.80;80.80;;;;;;4811918;29;20574;-93
2023/11/17 01:23:16;;;;;;;5.03;1.20;;;7.80;80.50;;;;;;4796964;29;20050;-93
2023/11/17 01:25:45;;;;;;;5.07;1.10;;;7.80;80.60;;;;;;4796616;29;20089;-94
2023/11/17 01:28:13;;;;;;;6.47;1.63;;;7.80;80.90;;;;;;4796944;29;20111;-93
2023/11/17 01:30:41;;;;;;;5.57;1.60;;;7.70;81.10;;;;;;4796795;29;20046;-93
2023/11/17 01:33:09;;;;;;;6.97;1.80;;;7.70;80.90;;;;;;4797227;29;20106;-93
2023/11/17 01:35:38;;;;;;;5.53;1.70;;;7.80;80.80;;;;;;4796871;29;20059;-93
2023/11/17 01:38:05;;;;;;;5.40;1.90;;;7.80;81.00;;;;;;4796870;29;20422;-93
2023/11/17 01:40:32;;;;;;;7.43;2.00;;;7.80;81.00;;;;;;4796609;29;20394;-93
2023/11/17 01:43:05;;;;;;;10.95;2.40;;;7.90;81.00;;;;;;4811190;29;20055;-93
2023/11/17 01:45:34;;;;;;;6.32;2.33;;;7.90;80.90;;;;;;4796794;29;20058;-94
2023/11/17 01:48:01;;;;;;;8.03;2.50;;;7.90;80.90;;;;;;4796322;29;20051;-93
2023/11/17 01:50:29;;;;;;;7.03;1.95;;;8.00;80.80;;;;;;4796495;29;20046;-93
2023/11/17 01:52:56;;;;;;;7.95;2.25;;;8.00;80.60;;;;;;4796338;29;20043;-93
2023/11/17 01:55:24;;;;;;;7.90;2.90;;;7.90;80.40;;;;;;4796362;29;20047;-93
2023/11/17 01:57:53;;;;;;;7.28;2.58;;;8.00;80.90;;;;;;4796565;29;20140;-93
2023/11/17 02:00:21;;;;;;;8.77;2.47;;;8.00;81.10;;;;;;4796342;29;20062;-94
2023/11/17 02:02:51;;;;;;;7.72;2.20;;;7.90;80.90;;;;;;4796064;29;20069;-94
2023/11/17 02:05:24;;;;;;;10.95;2.20;;;7.90;81.10;;;;;;4796227;29;20046;-93
2023/11/17 02:08:20;;;;;;;8.07;2.63;;;7.90;81.30;;;;;;4796107;29;20062;-93
2023/11/17 02:11:07;;;;;;;6.57;1.90;;;7.90;81.40;;;;;;4796114;29;20137;-94
2023/11/17 02:14:07;;;;;;;7.63;2.20;;;7.90;81.20;;;;;;4796682;29;20061;-95
2023/11/17 02:16:38;;;;;;;5.75;1.60;;;7.90;81.30;;;;;;4825413;29;20111;-95
2023/11/17 02:19:37;;;;;;;7.47;2.20;;;7.90;81.40;;;;;;4795941;29;20050;-96
2023/11/17 02:22:12;;;;;;;6.35;2.00;;;7.90;81.60;;;;;;4796176;29;20513;-93
2023/11/17 02:25:12;;;;;;;7.40;2.20;;;7.80;81.60;;;;;;4796156;29;20921;-93
2023/11/17 02:27:50;;;;;;;7.13;2.13;;;7.80;81.80;;;;;;4796277;29;20058;-94
2023/11/17 02:30:19;;;;;;;10.05;2.47;;;7.80;82.00;;;;;;4795255;29;20054;-94
2023/11/17 02:32:51;;;;;;;5.50;1.90;;;7.80;81.80;;;;;;4795814;29;20046;-94
2023/11/17 02:35:28;;;;;;;8.25;2.13;;;7.80;81.90;;;;;;4795500;29;20391;-94
2023/11/17 02:38:01;;;;;;;8.48;2.03;;;7.80;82.00;;;;;;4795798;29;20058;-93
2023/11/17 02:40:32;;;;;;;8.67;2.47;;;7.70;82.10;;;;;;4795568;29;20052;-93
2023/11/17 02:42:59;;;;;;;6.20;2.00;;;7.70;82.50;;;;;;4810840;29;20057;-94
2023/11/17 02:45:27;;;;;;;7.47;2.03;;;7.70;82.40;;;;;;4810495;29;20051;-93
2023/11/17 02:47:56;;;;;;;7.57;2.05;;;7.70;82.30;;;;;;4795417;29;20413;-93
2023/11/17 02:50:51;;;;;;;7.15;1.95;;;7.70;82.50;;;;;;4796035;29;20456;-94
2023/11/17 02:53:24;;;;;;;7.57;1.77;;;7.70;82.70;;;;;;4795594;29;20046;-94
2023/11/17 02:55:51;;;;;;;5.72;1.48;;;7.70;82.60;;;;;;4795407;29;20057;-95
2023/11/17 02:58:20;;;;;;;5.15;1.23;;;7.70;82.50;;;;;;4795574;29;20046;-94
2023/11/17 03:00:51;;;;;;;6.50;1.45;;;7.60;82.60;;;;;;4810127;29;20125;-94
2023/11/17 03:03:22;;;;;;;7.25;1.55;;;7.60;82.70;;;;;;4795384;29;20097;-94
2023/11/17 03:05:59;;;;;;;6.13;1.70;;;7.70;82.80;;;;;;4795225;29;20069;-94
2023/11/17 03:08:27;;;;;;;4.15;1.38;;;7.70;82.80;;;;;;4795307;29;20058;-94
2023/11/17 03:11:00;;;;;;;5.57;1.58;;;7.70;82.60;;;;;;4795055;29;20064;-95
2023/11/17 03:13:31;;;;;;;5.50;1.23;;;7.70;82.80;;;;;;4795634;29;20382;-94
2023/11/17 03:15:59;;;;;;;5.60;1.52;;;7.80;82.80;;;;;;4795316;29;20107;-94
2023/11/17 03:18:27;;;;;;;6.17;1.80;;;7.90;82.60;;;;;;4795102;29;20504;-94
2023/11/17 03:20:56;;;;;;;6.18;1.80;;;8.00;82.40;;;;;;4795074;29;20054;-94
2023/11/17 03:23:24;;;;;;;7.28;1.67;;;8.00;82.20;;;;;;4795079;29;20073;-94
2023/11/17 03:25:53;;;;;;;5.68;1.60;;;8.00;82.20;;;;;;4795821;29;20410;-94
2023/11/17 03:28:20;;;;;;;4.53;1.50;;;8.00;82.20;;;;;;4794991;29;20486;-94
2023/11/17 03:30:47;;;;;;;5.83;1.63;;;8.00;82.00;;;;;;4795357;29;20386;-93
2023/11/17 03:33:17;;;;;;;5.20;1.40;;;8.00;82.10;;;;;;4795219;29;20055;-93
2023/11/17 03:35:44;;;;;;;4.13;1.20;;;8.00;82.00;;;;;;4795036;29;20051;-93
2023/11/17 03:38:13;;;;;;;6.68;1.55;;;8.10;81.90;;;;;;4794892;29;20093;-94
2023/11/17 03:40:47;;;;;;;7.03;1.80;;;8.00;81.90;;;;;;4794803;29;20058;-93
2023/11/17 03:43:14;;;;;;;6.53;1.70;;;8.00;82.00;;;;;;4797485;29;20061;-93
2023/11/17 03:45:48;;;;;;;5.15;1.20;;;8.00;82.30;;;;;;4798420;29;20054;-93
2023/11/17 03:48:16;;;;;;;5.00;1.40;;;8.00;82.30;;;;;;4798767;29;20103;-93
2023/11/17 03:50:44;;;;;;;5.05;1.63;;;8.10;82.00;;;;;;4798505;29;20081;-93
2023/11/17 03:53:11;;;;;;;4.82;1.45;;;8.10;82.00;;;;;;4798999;29;20057;-92
2023/11/17 03:55:41;;;;;;;5.47;1.50;;;8.10;81.60;;;;;;4798163;29;20078;-92
2023/11/17 03:58:09;;;;;;;5.53;1.60;;;8.10;81.90;;;;;;4798728;29;20058;-92
2023/11/17 04:00:36;;;;;;;5.15;1.90;;;8.00;81.80;;;;;;4798157;29;20114;-93
2023/11/17 04:03:04;;;;;;;5.28;1.48;;;8.00;81.90;;;;;;4798002;29;20073;-94
2023/11/17 04:05:33;;;;;;;5.10;1.75;;;8.00;82.10;;;;;;4798467;29;20050;-93
2023/11/17 04:08:00;;;;;;;6.80;1.60;;;8.10;82.10;;;;;;4798188;29;20092;-94
2023/11/17 04:10:36;;;;;;;6.45;1.60;;;8.30;81.90;;;;;;4798543;29;20069;-94
2023/11/17 04:13:11;;;;;;;5.80;1.63;;;8.40;81.60;;;;;;4799107;29;20050;-93
2023/11/17 04:15:39;;;;;;;4.35;1.27;;;8.50;81.10;;;;;;4798016;29;20148;-93
2023/11/17 04:18:06;;;;;;;6.68;1.80;;;8.50;80.80;;;;;;4812803;29;20529;-94
2023/11/17 04:20:33;;;;;;;4.90;1.43;;;8.50;80.80;;;;;;4798153;29;20051;-94
2023/11/17 04:23:01;;;;;;;6.95;1.25;;;8.50;80.70;;;;;;4798036;29;20525;-94
2023/11/17 04:25:30;;;;;;;6.68;1.83;;;8.60;80.70;;;;;;4798435;29;20093;-94
2023/11/17 04:27:58;;;;;;;5.88;1.92;;;8.60;80.30;;;;;;4797673;29;20425;-94
2023/11/17 04:30:28;;;;;;;5.88;1.65;;;8.60;80.20;;;;;;4798288;29;20053;-94
2023/11/17 04:32:57;;;;;;;6.23;1.40;;;8.60;80.20;;;;;;4812654;29;20066;-95
2023/11/17 04:35:26;;;;;;;7.05;1.85;;;8.60;80.20;;;;;;4797893;29;20053;-94
2023/11/17 04:37:54;;;;;;;6.30;1.92;;;8.70;80.10;;;;;;4797644;29;20047;-94
2023/11/17 04:40:21;;;;;;;7.00;2.25;;;8.70;79.90;;;;;;4797603;29;20050;-96
2023/11/17 04:42:49;;;;;;;8.93;2.58;;;8.70;79.80;;;;;;4797899;29;20092;-94
2023/11/17 04:45:16;;;;;;;7.27;2.60;;;8.70;79.80;;;;;;4797374;29;20402;-94
2023/11/17 04:47:43;;;;;;;7.13;2.13;;;8.70;79.90;;;;;;4797535;29;20054;-94
2023/11/17 04:50:10;;;;;;;5.75;1.85;;;8.80;79.80;;;;;;4797122;29;20050;-92
2023/11/17 04:52:38;;;;;;;7.00;2.40;;;8.80;79.70;;;;;;4797089;29;20050;-93
2023/11/17 04:55:05;;;;;;;7.90;2.55;;;8.90;79.50;;;;;;4797309;29;20054;-93
2023/11/17 04:57:34;;;;;;;8.57;2.90;;;8.90;79.50;;;;;;4797306;29;20050;-94
2023/11/17 05:00:04;;;;;;;8.48;2.97;;;8.90;79.40;;;;;;4797423;29;20058;-94
2023/11/17 05:02:33;;;;;;;7.88;3.22;;;8.90;79.70;;;;;;4797075;29;20082;-94
2023/11/17 05:05:01;;;;;;;11.13;4.28;;;8.80;79.70;;;;;;4797440;29;20532;-94
2023/11/17 05:07:28;;;;;;;10.88;4.57;;;8.90;79.70;;;;;;4797322;29;20050;-94
2023/11/17 05:09:55;;;;;;;12.97;5.23;;;8.90;79.60;;;;;;4797148;29;20082;-94
2023/11/17 05:12:23;;;;;;;22.27;10.10;;;9.00;79.70;;;;;;4812034;29;20046;-93
2023/11/17 05:14:52;;;;;;;22.80;11.00;;;8.90;79.60;;;;;;4797121;29;20145;-93
2023/11/17 05:17:22;;;;;;;29.35;13.48;;;8.90;79.80;;;;;;4811917;29;20462;-93
2023/11/17 05:19:49;;;;;;;29.20;14.50;;;8.70;80.10;;;;;;4796716;29;20050;-93
2023/11/17 05:22:19;;;;;;;32.13;15.23;;;8.70;80.30;;;;;;4797218;29;20053;-93
2023/11/17 05:24:53;;;;;;;31.63;14.82;;;8.70;80.50;;;;;;4811726;29;20514;-93
2023/11/17 05:27:21;;;;;;;36.85;17.17;;;8.50;81.10;;;;;;4797222;29;20059;-94
2023/11/17 05:29:48;;;;;;;38.28;18.25;;;8.50;81.30;;;;;;4796880;29;20046;-93
2023/11/17 05:32:15;;;;;;;38.47;17.80;;;8.30;81.70;;;;;;4811779;29;20046;-93
2023/11/17 05:34:42;;;;;;;34.23;16.70;;;8.10;81.80;;;;;;4797013;29;20049;-93
2023/11/17 05:37:09;;;;;;;34.08;17.30;;;7.80;82.20;;;;;;4811787;29;20046;-94
2023/11/17 05:39:36;;;;;;;27.25;14.05;;;7.80;82.70;;;;;;4811527;29;20505;-94
2023/11/17 05:42:08;;;;;;;24.38;13.27;;;7.60;82.50;;;;;;4796497;29;20481;-92
2023/11/17 05:44:35;;;;;;;27.45;14.60;;;7.50;82.80;;;;;;4796696;29;20050;-93
2023/11/17 05:47:04;;;;;;;27.00;12.70;;;7.70;83.10;;;;;;4796374;29;20058;-94
2023/11/17 05:49:31;;;;;;;28.13;12.63;;;7.60;82.70;;;;;;4796413;29;20050;-93
2023/11/17 05:51:58;;;;;;;20.83;10.38;;;7.60;82.90;;;;;;4811276;29;20047;-93
2023/11/17 05:54:25;;;;;;;24.45;12.35;;;7.50;82.70;;;;;;4796111;29;20046;-92
2023/11/17 05:56:53;;;;;;;20.38;11.18;;;7.50;83.10;;;;;;4796547;29;20058;-93
2023/11/17 05:59:20;;;;;;;19.83;10.47;;;7.50;82.90;;;;;;4796369;29;20077;-93
2023/11/17 06:01:48;;;;;;;23.23;11.90;;;7.50;83.30;;;;;;4812062;29;20093;-93
2023/11/17 06:04:18;;;;;;;21.90;11.13;;;7.50;83.20;;;;;;4796166;29;20051;-93
2023/11/17 06:06:46;;;;;;;19.33;8.88;;;7.50;83.10;;;;;;4796241;29;20046;-91
2023/11/17 06:09:15;;;;;;;15.55;7.22;;;;;;;;;;4796469;29;20576;-90
2023/11/17 06:11:45;;;;;;;18.23;8.97;;;7.20;83.50;;;;;;4795776;29;20433;-91
2023/11/17 06:14:12;;;;;;;22.25;10.23;;;7.10;84.00;;;;;;4811178;29;20051;-91
2023/11/17 06:16:40;;;;;;;19.63;10.57;;;7.20;84.00;;;;;;4795713;29;20054;-92
2023/11/17 06:19:08;;;;;;;21.48;11.75;;;7.10;84.20;;;;;;4810911;29;20046;-92
2023/11/17 06:21:36;;;;;;;23.45;12.40;;;7.10;84.30;;;;;;4795816;29;20152;-91
2023/11/17 06:24:03;;;;;;;24.67;11.90;;;7.20;84.30;;;;;;4795611;29;20046;-92
2023/11/17 06:26:34;;;;;;;23.38;12.80;;;7.20;84.10;;;;;;4796128;29;20085;-91
2023/11/17 06:29:05;;;;;;;26.52;12.68;;;7.20;84.20;;;;;;4796083;29;20053;-91
2023/11/17 06:31:32;;;;;;;19.45;9.65;;;7.20;84.30;;;;;;4795530;29;20414;-91
2023/11/17 06:34:00;;;;;;;20.90;10.90;;;7.20;83.90;;;;;;4795774;29;20066;-91
2023/11/17 06:36:27;;;;;;;21.33;11.03;;;7.10;84.10;;;;;;4810567;29;20055;-92
2023/11/17 06:38:54;;;;;;;24.70;12.32;;;7.20;84.10;;;;;;4795762;29;20057;-93
2023/11/17 06:41:24;;;;;;;23.60;12.88;;;7.30;83.90;;;;;;4810225;29;20054;-91
2023/11/17 06:43:52;;;;;;;24.70;12.45;;;7.20;83.90;;;;;;4810712;29;20501;-91
2023/11/17 06:46:23;;;;;;;22.55;11.20;;;7.20;83.90;;;;;;4795713;29;20079;-92
2023/11/17 06:48:51;;;;;;;19.80;8.80;;;7.20;83.80;;;;;;4795660;29;20050;-90
2023/11/17 06:51:20;;;;;;;22.02;11.65;;;7.10;83.70;;;;;;4794958;29;20061;-89
2023/11/17 06:53:48;;;;;;;16.55;8.13;;;7.20;84.10;;;;;;4789643;29;20050;-88
2023/11/17 06:56:15;;;;;;;21.20;9.80;;;7.20;83.50;;;;;;4786256;29;20055;-88
2023/11/17 06:58:42;;;;;;;21.27;9.98;;;7.10;83.60;;;;;;4789712;29;20053;-88
2023/11/17 07:01:09;;;;;;;20.03;9.27;;;7.20;83.60;;;;;;4794842;29;20062;-88
2023/11/17 07:03:38;;;;;;;19.23;10.27;;;7.20;83.50;;;;;;4794600;29;20062;-88
2023/11/17 07:06:07;;;;;;;22.17;10.30;;;7.20;83.50;;;;;;4787448;30;20067;-88
2023/11/17 07:08:34;;;;;;;18.70;9.38;;;7.10;84.00;;;;;;4788245;29;20070;-88
2023/11/17 07:11:03;;;;;;;16.67;8.65;;;7.10;83.80;;;;;;4810062;29;20467;-92
2023/11/17 07:13:31;;;;;;;17.77;7.97;;;7.00;84.00;;;;;;4759268;30;20108;-90
2023/11/17 07:15:58;;;;;;;18.08;9.40;;;7.00;83.90;;;;;;4759173;30;20499;-90
2023/11/17 07:18:25;;;;;;;16.98;8.73;;;7.00;84.00;;;;;;4759134;30;20529;-90
2023/11/17 07:20:54;;;;;;;16.17;8.32;;;7.10;84.00;;;;;;4759232;30;20047;-91
2023/11/17 07:23:21;;;;;;;18.20;8.93;;;7.00;84.10;;;;;;4759690;30;20056;-93
2023/11/17 07:25:48;;;;;;;17.87;7.90;;;7.20;84.20;;;;;;4759243;30;20089;-93
2023/11/17 07:28:16;;;;;;;15.63;7.63;;;7.20;83.70;;;;;;4759096;30;20059;-92
2023/11/17 07:30:43;;;;;;;14.65;7.00;;;7.20;83.60;;;;;;4766763;29;20048;-90
2023/11/17 07:33:10;;;;;;;14.95;5.85;;;7.00;83.20;;;;;;4795283;29;20100;-90
2023/11/17 07:35:40;;;;;;;14.38;6.07;;;7.00;83.60;;;;;;4794956;29;20498;-89
2023/11/17 07:38:07;;;;;;;14.47;6.53;;;7.00;83.50;;;;;;4795147;29;20050;-91
2023/11/17 07:40:34;;;;;;;15.05;6.13;;;7.00;83.80;;;;;;4777742;30;20515;-91
2023/11/17 07:43:05;;;;;;;13.10;5.95;;;7.00;84.00;;;;;;4788505;30;20055;-91
2023/11/17 07:45:33;;;;;;;11.77;5.85;;;7.00;83.60;;;;;;4788465;30;20506;-91
2023/11/17 07:48:02;;;;;;;15.68;5.68;;;7.10;83.70;;;;;;4788443;30;20051;-91
2023/11/17 07:50:30;;;;;;;15.90;4.80;;;7.10;83.50;;;;;;4774308;30;20055;-93
2023/11/17 07:52:58;;;;;;;11.73;4.45;;;7.00;83.10;;;;;;4788267;30;20047;-92
2023/11/17 07:55:25;;;;;;;11.77;4.50;;;6.90;83.10;;;;;;4788734;30;20490;-92
2023/11/17 07:57:54;;;;;;;10.82;5.07;;;6.70;83.20;;;;;;4788294;30;20235;-92
2023/11/17 08:00:27;;;;;;;11.63;5.32;;;6.80;83.50;;;;;;4788630;30;20515;-91
2023/11/17 08:02:55;;;;;;;10.90;4.77;;;6.80;83.70;;;;;;4788061;30;20052;-91
2023/11/17 08:05:23;;;;;;;10.07;4.40;;;6.80;83.30;;;;;;4788186;30;20075;-91
2023/11/17 08:07:53;;;;;;;10.93;4.85;;;6.90;83.30;;;;;;4773845;30;20059;-92
2023/11/17 08:10:21;;;;;;;10.15;4.40;;;6.90;83.30;;;;;;4773496;30;20388;-91
2023/11/17 08:12:49;;;;;;;11.30;5.05;;;6.90;83.20;;;;;;4788534;30;20051;-91
2023/11/17 08:15:19;;;;;;;10.93;4.90;;;7.00;83.20;;;;;;4788120;30;20047;-92
2023/11/17 08:17:47;;;;;;;10.50;4.50;;;7.00;83.40;;;;;;4773636;30;20510;-91
2023/11/17 08:20:15;;;;;;;10.85;5.05;;;6.90;82.90;;;;;;4787992;30;20051;-92
2023/11/17 08:22:44;;;;;;;9.50;4.70;;;6.90;83.50;;;;;;4773802;30;20051;-92
2023/11/17 08:25:11;;;;;;;10.80;5.00;;;6.70;83.80;;;;;;4788817;30;20502;-91
2023/11/17 08:27:38;;;;;;;12.47;5.70;;;6.70;84.00;;;;;;4788652;29;20051;-91
2023/11/17 08:30:07;;;;;;;14.75;6.68;;;6.80;84.10;;;;;;4792297;30;20051;-93
2023/11/17 08:32:39;;;;;;;14.68;6.45;;;6.90;84.30;;;;;;4791921;30;20047;-95
2023/11/17 08:35:07;;;;;;;12.30;6.53;;;6.90;84.00;;;;;;4777645;30;20047;-91
2023/11/17 08:37:35;;;;;;;13.02;6.32;;;6.80;84.00;;;;;;4791141;30;20074;-90
2023/11/17 08:40:09;;;;;;;11.20;5.43;;;6.70;84.00;;;;;;4791558;30;20062;-90
2023/11/17 08:42:37;;;;;;;12.25;5.60;;;6.60;84.10;;;;;;4803926;29;20126;-93
2023/11/17 08:45:09;;;;;;;12.00;5.93;;;6.50;84.60;;;;;;4812521;29;20054;-91
2023/11/17 08:47:48;;;;;;;16.10;7.07;;;6.60;84.90;;;;;;4798153;29;20521;-91
2023/11/17 08:50:16;;;;;;;14.07;6.72;;;6.70;84.70;;;;;;4797770;29;20046;-92
2023/11/17 08:52:45;;;;;;;12.63;6.93;;;6.70;84.30;;;;;;4797407;29;20046;-92
2023/11/17 08:55:17;;;;;;;15.57;8.23;;;6.70;84.10;;;;;;4797453;29;20042;-87
2023/11/17 08:57:45;;;;;;;15.20;7.97;;;6.70;84.20;;;;;;4780813;30;20414;-89
2023/11/17 09:00:14;;;;;;;13.48;6.85;;;6.80;84.00;;;;;;4793396;29;20080;-90
2023/11/17 09:02:45;;;;;;;15.02;9.13;;;6.80;83.90;;;;;;4779412;29;20061;-89
2023/11/17 09:05:13;;;;;;;18.23;10.57;;;6.80;84.10;;;;;;4791905;29;20050;-89
2023/11/17 09:07:42;;;;;;;20.25;10.82;;;6.70;84.00;;;;;;4794666;29;20043;-91
2023/11/17 09:10:11;;;;;;;17.85;10.38;;;6.80;84.30;;;;;;4793134;29;20047;-89
2023/11/17 09:12:42;;;;;;;20.48;10.73;;;6.90;84.20;;;;;;4761671;30;20047;-90
2023/11/17 09:15:23;;;;;;;20.80;9.93;;;6.90;84.10;;;;;;4761555;30;20055;-89
2023/11/17 09:17:51;;;;;;;20.67;10.93;;;7.00;83.90;;;;;;4775143;30;20058;-89
2023/11/17 09:20:21;;;;;;;20.00;10.20;;;7.00;84.10;;;;;;4760564;30;20083;-91
2023/11/17 09:22:50;;;;;;;17.58;9.85;;;7.00;83.90;;;;;;4762571;29;20057;-90
2023/11/17 09:25:19;;;;;;;18.15;9.35;;;7.00;84.10;;;;;;4778158;29;20485;-92
2023/11/17 09:27:51;;;;;;;16.17;8.55;;;7.00;84.00;;;;;;4778212;29;20046;-88
2023/11/17 09:30:19;;;;;;;19.83;9.83;;;7.00;84.00;;;;;;4778257;29;20054;-91
2023/11/17 09:32:48;;;;;;;20.92;10.85;;;6.80;84.10;;;;;;4777824;29;20050;-89
2023/11/17 09:35:17;;;;;;;21.33;10.18;;;6.70;84.60;;;;;;4777963;29;20450;-90
2023/11/17 09:37:49;;;;;;;18.40;10.40;;;6.80;84.70;;;;;;4792731;29;20142;-90
2023/11/17 09:40:24;;;;;;;23.52;11.93;;;6.80;84.80;;;;;;4776678;29;20050;-90
2023/11/17 09:43:11;;;;;;;20.63;11.13;;;6.80;85.00;;;;;;4777959;29;20177;-89
2023/11/17 09:45:42;;;;;;;22.38;12.05;;;6.80;84.80;;;;;;4777257;29;20047;-89
2023/11/17 09:48:11;;;;;;;24.52;13.63;;;6.90;84.80;;;;;;4792559;29;20057;-90
2023/11/17 09:50:40;;;;;;;24.15;11.98;;;7.00;84.80;;;;;;4792191;29;20555;-89
2023/11/17 09:53:12;;;;;;;18.10;9.55;;;7.00;84.30;;;;;;4777730;29;20402;-90
2023/11/17 09:55:42;;;;;;;22.93;11.33;;;7.00;83.90;;;;;;4777693;29;20139;-91
2023/11/17 09:58:11;;;;;;;25.50;12.35;;;6.90;84.10;;;;;;4786813;30;20060;-89
2023/11/17 10:00:45;;;;;;;22.90;11.38;;;7.00;84.30;;;;;;4759601;30;20047;-89
2023/11/17 10:03:13;;;;;;;23.77;12.13;;;7.00;84.30;;;;;;4763219;29;20077;-89
2023/11/17 10:05:42;;;;;;;29.88;13.43;;;7.00;84.30;;;;;;4791926;29;20089;-87
2023/11/17 10:08:14;;;;;;;35.80;16.37;;;6.70;83.90;;;;;;4776978;29;20472;-87
2023/11/17 10:10:45;;;;;;;39.28;17.20;;;6.60;84.30;;;;;;4804702;29;20046;-87
2023/11/17 10:13:15;;;;;;;39.53;18.70;;;6.50;84.50;;;;;;4805965;29;20441;-88
2023/11/17 10:15:45;;;;;;;35.05;16.45;;;6.40;84.90;;;;;;4777146;29;20491;-89
2023/11/17 10:18:29;;;;;;;34.90;15.82;;;6.40;84.90;;;;;;4799985;29;20073;-89
2023/11/17 10:21:00;;;;;;;34.47;16.93;;;6.40;85.00;;;;;;4777141;29;20137;-90
2023/11/17 10:23:27;;;;;;;41.53;17.70;;;6.30;85.20;;;;;;4777341;29;20062;-90
2023/11/17 10:25:55;;;;;;;36.53;16.65;;;6.30;85.20;;;;;;4776896;29;20078;-88
2023/11/17 10:28:24;;;;;;;32.63;16.05;;;6.40;85.30;;;;;;4792160;29;20082;-89
2023/11/17 10:30:55;;;;;;;33.58;16.33;;;6.30;85.00;;;;;;4777159;29;20062;-90
2023/11/17 10:33:29;;;;;;;34.30;16.33;;;6.30;85.20;;;;;;4777145;29;20108;-89
2023/11/17 10:36:15;;;;;;;30.13;14.15;;;6.40;85.10;;;;;;4790694;29;20554;-90
2023/11/17 10:38:45;;;;;;;29.55;15.13;;;6.50;84.80;;;;;;4789785;29;20145;-89
2023/11/17 10:41:20;;;;;;;32.67;14.98;;;6.50;84.80;;;;;;4815043;29;20050;-91
2023/11/17 10:43:50;;;;;;;31.52;13.80;;;6.30;84.90;;;;;;4786357;29;20080;-89
2023/11/17 10:46:37;;;;;;;26.43;12.77;;;6.30;84.90;;;;;;4805810;29;20145;-89
2023/11/17 10:49:05;;;;;;;28.95;14.43;;;6.10;85.30;;;;;;4787391;29;20457;-90
2023/11/17 10:51:33;;;;;;;29.30;14.02;;;6.10;85.60;;;;;;4777548;29;20569;-88
2023/11/17 10:54:01;;;;;;;26.38;13.35;;;6.20;85.60;;;;;;4775197;30;20506;-88
2023/11/17 10:56:28;;;;;;;27.45;12.93;;;6.20;85.70;;;;;;4778977;29;20051;-89
2023/11/17 10:58:58;;;;;;;24.90;12.43;;;6.30;85.50;;;;;;4773561;30;20130;-89
2023/11/17 11:01:34;;;;;;;20.98;10.00;;;6.40;85.30;;;;;;4781643;29;20059;-89
2023/11/17 11:04:09;;;;;;;21.95;10.70;;;6.30;84.60;;;;;;4806815;29;20069;-92
2023/11/17 11:06:38;;;;;;;20.48;10.02;;;6.10;84.70;;;;;;4792744;29;20513;-92
2023/11/17 11:09:06;;;;;;;16.65;8.10;;;6.10;84.50;;;;;;4788520;29;20058;-93
2023/11/17 11:11:33;;;;;;;18.33;9.00;;;6.00;83.90;;;;;;4793627;29;20061;-92
2023/11/17 11:14:02;;;;;;;19.02;9.38;;;6.00;84.30;;;;;;4790970;29;20046;-90
2023/11/17 11:16:32;;;;;;;21.77;10.63;;;5.90;84.20;;;;;;4809051;29;20054;-91
2023/11/17 11:19:00;;;;;;;17.33;7.78;;;6.00;84.40;;;;;;4794524;29;20531;-89
2023/11/17 11:21:33;;;;;;;17.75;9.07;;;6.00;83.70;;;;;;4807449;29;20108;-85
2023/11/17 11:24:04;;;;;;;14.20;6.17;;;5.90;83.50;;;;;;4777811;29;20154;-89
2023/11/17 11:26:32;;;;;;;17.75;8.13;;;5.70;83.40;;;;;;4776182;29;20061;-89
2023/11/17 11:28:59;;;;;;;15.70;7.72;;;5.60;84.30;;;;;;4791404;29;20051;-91
2023/11/17 11:31:27;;;;;;;16.02;7.90;;;5.70;84.10;;;;;;4790971;29;20417;-89
2023/11/17 11:33:54;;;;;;;15.48;7.18;;;5.80;83.60;;;;;;4776286;29;20057;-92
2023/11/17 11:36:21;;;;;;;17.63;8.87;;;5.70;83.70;;;;;;4776599;29;20104;-90
2023/11/17 11:38:49;;;;;;;17.50;8.70;;;5.70;83.60;;;;;;4809204;29;20046;-90
2023/11/17 11:41:22;;;;;;;20.67;9.18;;;5.60;83.00;;;;;;4794204;29;20528;-90
2023/11/17 11:43:51;;;;;;;20.13;10.35;;;5.60;83.30;;;;;;4794019;29;20450;-91
2023/11/17 11:46:26;;;;;;;15.77;8.65;;;5.50;83.70;;;;;;4794046;29;20145;-92
2023/11/17 11:48:57;;;;;;;18.87;9.57;;;5.50;83.80;;;;;;4808873;29;20103;-91
2023/11/17 11:51:29;;;;;;;18.25;9.10;;;5.70;83.20;;;;;;4793862;29;20070;-90
2023/11/17 11:54:08;;;;;;;15.70;8.05;;;5.70;83.10;;;;;;4781308;30;20058;-91
2023/11/17 11:56:48;;;;;;;15.68;7.78;;;5.50;82.60;;;;;;4801256;29;20090;-92
2023/11/17 11:59:15;;;;;;;16.77;8.05;;;5.30;83.20;;;;;;4792144;29;20047;-92
2023/11/17 12:01:47;;;;;;;20.17;10.40;;;5.10;83.00;;;;;;4794856;29;20054;-93
2023/11/17 12:04:14;;;;;;;16.98;8.95;;;5.10;83.60;;;;;;4796320;29;20058;-93
2023/11/17 12:06:41;;;;;;;18.33;8.77;;;5.10;83.50;;;;;;4798145;29;20142;-93
2023/11/17 12:09:19;;;;;;;21.58;12.55;;;5.20;83.40;;;;;;4798674;29;20154;-92
2023/11/17 12:11:49;;;;;;;16.80;7.70;;;5.10;83.50;;;;;;4797895;29;20092;-91
2023/11/17 12:14:26;;;;;;;16.77;9.67;;;5.00;83.10;;;;;;4788611;30;20085;-89
2023/11/17 12:16:55;;;;;;;16.58;9.20;;;4.80;82.90;;;;;;4800397;29;20062;-90
2023/11/17 12:19:26;;;;;;;13.88;7.95;;;4.90;83.00;;;;;;4797017;29;20201;-89
2023/11/17 12:21:53;;;;;;;14.23;8.65;;;4.80;82.90;;;;;;4781905;30;20047;-89
2023/11/17 12:24:24;;;;;;;17.80;9.02;;;4.80;82.90;;;;;;4790515;30;20117;-90
2023/11/17 12:26:53;;;;;;;17.60;8.90;;;4.80;83.10;;;;;;4785191;29;20050;-90
2023/11/17 12:29:24;;;;;;;14.27;8.13;;;4.90;82.70;;;;;;4791872;29;20080;-90
2023/11/17 12:31:52;;;;;;;15.65;8.40;;;4.80;82.20;;;;;;4785147;29;20079;-91
2023/11/17 12:38:59;;;;;;;13.20;6.97;;;4.60;82.20;;;;;;4827947;29;20152;-90
2023/11/17 12:41:27;;;;;;;14.20;7.77;;;4.50;81.50;;;;;;4760831;30;20059;-89
2023/11/17 12:43:56;;;;;;;12.57;5.82;;;4.50;82.20;;;;;;4775480;30;20150;-90
2023/11/17 12:46:25;;;;;;;12.57;6.85;;;4.50;81.70;;;;;;4775474;30;20082;-90
2023/11/17 12:48:53;;;;;;;11.07;5.53;;;4.50;80.70;;;;;;4801272;29;20121;-89
2023/11/17 12:51:31;;;;;;;13.27;5.95;;;4.30;80.40;;;;;;4793116;29;20406;-89
2023/11/17 12:54:01;;;;;;;10.50;5.40;;;4.30;80.20;;;;;;4804419;29;20061;-90
2023/11/17 12:56:28;;;;;;;12.88;6.47;;;4.20;79.80;;;;;;4795827;29;20582;-89
2023/11/17 12:58:55;;;;;;;13.02;6.20;;;4.20;80.00;;;;;;4808418;29;20441;-89
2023/11/17 13:01:25;;;;;;;11.02;5.70;;;4.20;80.00;;;;;;4787217;29;20049;-89
2023/11/17 13:03:58;;;;;;;10.90;6.30;;;4.20;79.90;;;;;;4787682;29;20558;-89
2023/11/17 13:06:27;;;;;;;12.23;5.60;;;4.20;79.50;;;;;;4784450;29;20107;-89